Portada
METAR-TAF:

METAR-TAF

Aeroports :

Dibrugarh, Índia

latitud: 27-29N, longitud: 095-01E, altitud: 110 m

Observació

L'informe es va fer fa 39 minuts, a les 06:00 UTC
Vent 7 kt del Est/Nord-Est
Temperatura 25°C
Humitat 50%
Pressió 1015 hPa
Visibilitat: 5000 m
Escasses núvols a una alçada de 2000 ft
Cel ennuvolat a una alçada de 10000 ft
calitja

METAR: VEMN 030600Z 06007KT 5000 HZ FEW020 BKN100 25/14 Q1015 NOSIG

Hora: 12:09 (06:39 UTC)

Pronòstic

L'informe es va fer fa 1 hora i 39 minuts, a les 05:00 UTC
Pronòstic vàlid del 03 a les 06 UTC al 03 a les 15 UTC
Vent 5 kt del Nord-Est
Visibilitat: 5000 m
Escasses núvols a una alçada de 2000 ft
Núvols disperses a una alçada de 10000 ft
calitja
Evolucionant progressivament
l' 03 a les 12 UTC al 03 a les 15 UTC
Vent kt del Nord
Visibilitat: 3000 m
Escasses núvols a una alçada de 10000 ft
calitja

TAF: VEMN 030500Z 0306/0315 05005KT 5000 HZ FEW020 SCT100 BECMG 0312/0315 00000KT 3000 HZ FEW100

Observacions i pronòstics meteorològics de més de 4000 aeroports (METAR i TAF).

Les estacions disponibles són els punts grocs i vermells al mapa.

Posi el ratolí al punt desitjat per veure el nom de l'estació.

Feu clic per veure les observacions i els pronòstics meteorològics.

Per canviar el mapa: feu clic els botons verds amb una creu de color negre per apropar; al botó verd amb un guió per allunyar la imatge; o en les fletxes verdes per a mapes adjacents.


METAR-TAF: